Time;durP1;ratioP1;P1;durP2;ratioP2;P2;SDS_P1;SDS_P2;PMS_P1;PMS_P2;Temp;Humidity;BMP_temperature;BMP_pressure;BME280_temperature;BME280_humidity;BME280_pressure;Samples;Min_cycle;Max_cycle;Signal;HPM_P1;HPM_P2
2022/09/16 00:00:28;;;;;;;2.20;0.90;;;13.50;99.90;;;;;;5030047;28;20215;-53
2022/09/16 00:02:55;;;;;;;5.50;1.10;;;13.40;99.90;;;;;;5026527;28;20280;-53
2022/09/16 00:05:22;;;;;;;3.87;0.70;;;13.40;99.90;;;;;;5027915;28;20667;-53
2022/09/16 00:07:49;;;;;;;3.37;0.90;;;13.30;99.90;;;;;;5030439;28;20197;-53
2022/09/16 00:10:17;;;;;;;3.17;0.93;;;13.40;99.90;;;;;;5029692;28;20200;-54
2022/09/16 00:12:43;;;;;;;1.60;0.80;;;13.30;99.90;;;;;;5031526;28;20300;-53
2022/09/16 00:15:10;;;;;;;4.23;1.00;;;13.40;99.90;;;;;;5033558;28;20209;-52
2022/09/16 00:17:37;;;;;;;4.00;1.10;;;13.50;99.90;;;;;;5046116;28;20205;-53
2022/09/16 00:20:06;;;;;;;2.90;0.83;;;13.50;99.90;;;;;;5033167;28;20783;-53
2022/09/16 00:22:33;;;;;;;8.87;1.00;;;13.50;99.90;;;;;;5032146;28;20211;-53
2022/09/16 00:25:00;;;;;;;2.60;1.00;;;13.60;99.90;;;;;;5031564;28;20221;-53
2022/09/16 00:27:27;;;;;;;3.23;1.40;;;13.70;99.90;;;;;;5031724;28;20229;-53
2022/09/16 00:29:54;;;;;;;2.57;1.30;;;13.60;99.90;;;;;;5033187;28;20267;-53
2022/09/16 00:32:22;;;;;;;3.47;1.03;;;13.50;99.90;;;;;;5027867;28;20201;-53
2022/09/16 00:34:50;;;;;;;2.87;0.90;;;13.50;99.90;;;;;;5029033;28;20571;-54
2022/09/16 00:37:17;;;;;;;3.70;1.00;;;13.40;99.90;;;;;;5027368;28;20294;-52
2022/09/16 00:39:47;;;;;;;3.33;0.87;;;13.30;99.90;;;;;;5029864;28;20240;-55
2022/09/16 00:42:14;;;;;;;3.57;1.17;;;13.30;99.90;;;;;;5033090;28;20259;-52
2022/09/16 00:44:56;;;;;;;4.60;1.03;;;13.30;99.90;;;;;;5032266;28;20296;-53
2022/09/16 00:47:29;;;;;;;2.63;0.70;;;13.20;99.90;;;;;;5033238;28;20287;-53
2022/09/16 00:50:05;;;;;;;3.53;0.90;;;13.30;99.90;;;;;;5029757;28;20202;-53
2022/09/16 00:52:32;;;;;;;4.13;0.90;;;13.10;99.90;;;;;;5028822;28;20210;-52
2022/09/16 00:55:04;;;;;;;7.10;1.03;;;13.00;99.90;;;;;;5028185;28;20201;-53
2022/09/16 00:57:31;;;;;;;3.13;1.00;;;12.90;99.90;;;;;;5032519;28;20236;-53
2022/09/16 00:59:59;;;;;;;2.60;1.10;;;13.00;99.90;;;;;;5031987;28;20751;-53
2022/09/16 01:02:26;;;;;;;3.17;1.10;;;13.10;99.90;;;;;;5030616;28;20227;-54
2022/09/16 01:04:59;;;;;;;1.97;1.00;;;13.10;99.90;;;;;;5031678;28;20244;-52
2022/09/16 01:07:34;;;;;;;2.87;1.10;;;13.00;99.90;;;;;;5032077;28;20842;-52
2022/09/16 01:10:01;;;;;;;6.80;1.03;;;13.10;99.90;;;;;;5024799;28;20192;-53
2022/09/16 01:12:31;;;;;;;2.93;1.10;;;13.10;99.90;;;;;;5029686;28;20628;-53
2022/09/16 01:14:59;;;;;;;5.47;1.57;;;13.10;99.90;;;;;;5027830;28;20225;-53
2022/09/16 01:17:35;;;;;;;8.20;1.77;;;13.20;99.90;;;;;;5030278;28;20664;-53
2022/09/16 01:20:36;;;;;;;5.53;1.53;;;13.20;99.90;;;;;;5030505;28;20208;-52
2022/09/16 01:23:21;;;;;;;5.20;1.50;;;13.30;99.90;;;;;;5029525;28;20201;-52
2022/09/16 01:26:13;;;;;;;4.30;1.37;;;13.20;99.90;;;;;;5032219;28;20203;-52
2022/09/16 01:29:08;;;;;;;6.90;1.60;;;13.10;99.90;;;;;;5028210;28;20203;-52
2022/09/16 01:31:38;;;;;;;3.17;1.57;;;13.20;99.90;;;;;;5025826;28;20246;-53
2022/09/16 01:34:30;;;;;;;4.20;2.10;;;13.20;99.90;;;;;;5045174;28;20198;-53
2022/09/16 01:37:05;;;;;;;4.97;1.60;;;13.20;99.90;;;;;;5029571;28;20202;-53
2022/09/16 01:39:41;;;;;;;8.63;1.77;;;13.10;99.90;;;;;;5031206;28;20212;-52
2022/09/16 01:42:34;;;;;;;5.43;1.70;;;13.10;99.90;;;;;;5032157;28;20204;-53
2022/09/16 01:45:14;;;;;;;6.80;1.80;;;12.90;99.90;;;;;;5030940;28;20190;-53
2022/09/16 01:47:56;;;;;;;4.17;2.17;;;12.90;99.90;;;;;;5031553;28;20462;-53
2022/09/16 01:50:36;;;;;;;5.33;1.80;;;13.00;99.90;;;;;;5028714;28;20293;-53
2022/09/16 01:53:16;;;;;;;3.03;1.83;;;13.10;99.90;;;;;;5029032;28;20648;-52
2022/09/16 01:55:58;;;;;;;4.27;1.60;;;13.10;99.90;;;;;;5021089;28;20299;-53
2022/09/16 01:58:38;;;;;;;3.57;1.60;;;13.10;99.90;;;;;;5043424;28;20236;-53
2022/09/16 02:01:11;;;;;;;2.63;2.00;;;13.20;99.90;;;;;;5031094;28;20224;-53
2022/09/16 02:03:41;;;;;;;6.03;1.87;;;13.10;99.90;;;;;;5031875;28;20244;-53
2022/09/16 02:06:14;;;;;;;3.60;1.70;;;13.00;99.90;;;;;;5030542;28;20286;-54
2022/09/16 02:09:06;;;;;;;2.63;1.63;;;13.00;99.90;;;;;;5031273;28;20205;-53
2022/09/16 02:11:36;;;;;;;3.67;1.87;;;12.80;99.90;;;;;;5026473;28;20594;-53
2022/09/16 02:14:09;;;;;;;6.03;2.00;;;12.70;99.90;;;;;;5030347;28;20288;-51
2022/09/16 02:16:48;;;;;;;4.13;2.10;;;12.60;99.90;;;;;;5029187;28;20200;-53
2022/09/16 02:19:25;;;;;;;3.20;1.80;;;12.60;99.90;;;;;;5022281;28;20673;-51
2022/09/16 02:21:59;;;;;;;3.57;1.70;;;12.60;99.90;;;;;;5026460;28;20284;-53
2022/09/16 02:24:40;;;;;;;4.90;1.87;;;12.60;99.90;;;;;;5023944;28;20207;-53
2022/09/16 02:27:13;;;;;;;2.37;1.50;;;12.80;99.90;;;;;;5029373;28;20189;-53
2022/09/16 02:29:45;;;;;;;5.73;1.93;;;12.90;99.90;;;;;;5026127;28;20223;-52
2022/09/16 02:32:14;;;;;;;3.10;1.80;;;12.90;99.90;;;;;;5021352;28;20200;-53
2022/09/16 02:34:44;;;;;;;3.30;1.73;;;12.90;99.90;;;;;;5028106;28;20242;-53
2022/09/16 02:37:18;;;;;;;2.53;1.43;;;12.90;99.90;;;;;;5027363;28;20204;-53
2022/09/16 02:39:49;;;;;;;3.50;1.40;;;12.80;99.90;;;;;;5044388;28;20256;-53
2022/09/16 02:42:16;;;;;;;4.80;1.70;;;12.70;99.90;;;;;;5027827;28;20204;-53
2022/09/16 02:44:45;;;;;;;3.43;1.43;;;12.50;99.90;;;;;;5029073;28;20499;-53
2022/09/16 02:47:36;;;;;;;6.17;2.13;;;12.40;99.90;;;;;;5027446;28;20206;-53
2022/09/16 02:50:21;;;;;;;5.73;1.80;;;12.40;99.90;;;;;;5026144;28;20282;-53
2022/09/16 02:52:59;;;;;;;4.40;1.60;;;12.50;99.90;;;;;;5029141;28;20295;-53
2022/09/16 02:55:55;;;;;;;5.20;1.83;;;12.50;99.90;;;;;;5028217;28;20563;-54
2022/09/16 02:58:22;;;;;;;5.03;1.50;;;12.60;99.90;;;;;;5041470;28;20201;-54
2022/09/16 03:00:52;;;;;;;5.73;1.17;;;12.60;99.90;;;;;;5027358;28;20233;-55
2022/09/16 03:03:19;;;;;;;2.80;1.30;;;12.70;99.90;;;;;;5025711;28;20291;-53
2022/09/16 03:06:12;;;;;;;5.37;1.23;;;12.80;99.90;;;;;;5025292;28;20635;-54
2022/09/16 03:08:41;;;;;;;3.80;0.90;;;12.90;99.90;;;;;;5026765;28;20201;-54
2022/09/16 03:11:18;;;;;;;3.30;0.97;;;13.00;99.90;;;;;;5020122;28;20204;-53
2022/09/16 03:13:58;;;;;;;1.57;0.80;;;13.00;99.90;;;;;;5023339;28;20211;-54
2022/09/16 03:16:49;;;;;;;2.83;1.20;;;13.10;99.90;;;;;;5021049;28;20205;-54
2022/09/16 03:19:34;;;;;;;1.13;0.63;;;13.00;99.90;;;;;;5033901;28;20647;-53
2022/09/16 03:22:04;;;;;;;0.97;0.57;;;13.00;99.90;;;;;;5033134;28;20225;-54
2022/09/16 03:24:39;;;;;;;3.50;0.67;;;12.90;99.90;;;;;;5034297;28;20243;-54
2022/09/16 03:27:30;;;;;;;3.40;0.57;;;12.90;99.90;;;;;;5031402;28;20524;-52
2022/09/16 03:30:05;;;;;;;2.33;0.53;;;13.00;99.90;;;;;;5005854;28;20200;-54
2022/09/16 03:32:41;;;;;;;2.50;0.70;;;13.00;99.90;;;;;;5034427;28;20203;-53
2022/09/16 03:35:35;;;;;;;4.23;0.70;;;13.20;99.90;;;;;;5033077;28;20207;-53
2022/09/16 03:38:04;;;;;;;4.67;0.50;;;13.00;99.90;;;;;;5034009;28;20204;-53
2022/09/16 03:40:33;;;;;;;3.03;0.67;;;13.10;99.90;;;;;;5032658;28;20224;-53
2022/09/16 03:43:08;;;;;;;0.87;0.47;;;13.10;99.90;;;;;;5044671;28;20202;-53
2022/09/16 03:45:35;;;;;;;0.77;0.40;;;13.20;99.90;;;;;;5033958;28;20199;-53
2022/09/16 03:48:02;;;;;;;3.57;0.53;;;12.90;99.90;;;;;;5034713;28;20249;-53
2022/09/16 03:50:28;;;;;;;2.03;0.50;;;13.00;99.90;;;;;;5031934;28;20202;-52
2022/09/16 03:52:55;;;;;;;3.53;0.47;;;13.10;99.90;;;;;;5034973;28;20299;-52
2022/09/16 03:55:22;;;;;;;1.67;0.50;;;13.20;99.90;;;;;;5034392;28;20649;-52
2022/09/16 03:57:49;;;;;;;1.33;0.50;;;13.00;99.90;;;;;;5033010;28;20287;-58
2022/09/16 04:00:16;;;;;;;0.57;0.50;;;12.90;99.90;;;;;;5032328;28;20228;-53
2022/09/16 04:02:42;;;;;;;4.00;0.53;;;12.90;99.90;;;;;;5034427;28;20231;-52
2022/09/16 04:05:09;;;;;;;1.30;0.50;;;12.90;99.90;;;;;;5033008;28;20339;-53
2022/09/16 04:07:36;;;;;;;1.80;0.53;;;12.90;99.90;;;;;;5032741;28;20197;-53
2022/09/16 04:10:05;;;;;;;1.80;0.40;;;12.90;99.90;;;;;;5033380;28;20206;-52
2022/09/16 04:12:32;;;;;;;2.07;0.67;;;12.80;99.90;;;;;;5031955;28;20609;-52
2022/09/16 04:14:59;;;;;;;1.13;0.50;;;12.90;99.90;;;;;;5035321;28;20221;-53
2022/09/16 04:17:29;;;;;;;2.87;0.57;;;12.90;99.90;;;;;;5033974;28;20230;-53
2022/09/16 04:19:56;;;;;;;2.77;0.50;;;12.80;99.90;;;;;;5034126;28;20224;-52
2022/09/16 04:22:23;;;;;;;3.27;0.50;;;12.80;99.90;;;;;;5034619;28;20194;-52
2022/09/16 04:24:50;;;;;;;1.57;0.30;;;12.80;99.90;;;;;;5043965;28;20196;-54
2022/09/16 04:27:18;;;;;;;1.57;0.43;;;12.70;99.90;;;;;;5035852;28;20220;-53
2022/09/16 04:29:45;;;;;;;3.17;0.50;;;12.80;99.90;;;;;;5032860;28;20247;-52
2022/09/16 04:32:12;;;;;;;0.67;0.40;;;12.90;99.90;;;;;;5033464;28;20198;-52
2022/09/16 04:34:39;;;;;;;1.70;0.57;;;12.90;99.90;;;;;;5033141;28;20698;-53
2022/09/16 04:37:06;;;;;;;1.83;0.30;;;13.00;99.90;;;;;;5048028;28;20603;-53
2022/09/16 04:39:33;;;;;;;4.43;0.77;;;13.00;99.90;;;;;;5032481;28;20206;-53
2022/09/16 04:41:59;;;;;;;3.33;0.77;;;13.20;99.90;;;;;;5031960;28;20316;-53
2022/09/16 04:44:28;;;;;;;1.37;0.40;;;13.10;99.90;;;;;;5025767;28;20197;-52
2022/09/16 04:46:55;;;;;;;2.03;0.30;;;13.10;99.90;;;;;;5027781;28;20686;-53
2022/09/16 04:49:22;;;;;;;3.07;0.63;;;13.10;78.90;;;;;;5032438;28;20203;-53
2022/09/16 04:51:51;;;;;;;1.90;0.40;;;13.00;1.00;;;;;;5031656;28;20208;-53
2022/09/16 04:54:18;;;;;;;0.50;0.37;;;12.90;1.00;;;;;;5030886;28;20196;-53
2022/09/16 04:56:45;;;;;;;3.30;0.30;;;13.00;1.00;;;;;;5030807;28;20398;-53
2022/09/16 04:59:12;;;;;;;3.03;0.53;;;12.90;99.90;;;;;;5031112;28;20283;-53
2022/09/16 05:01:39;;;;;;;3.50;0.43;;;12.90;1.00;;;;;;5027869;28;20233;-52
2022/09/16 05:04:07;;;;;;;3.83;0.80;;;12.90;99.90;;;;;;5027965;28;20231;-52
2022/09/16 05:06:37;;;;;;;4.33;0.40;;;12.80;49.80;;;;;;5028445;28;20560;-53
2022/09/16 05:09:04;;;;;;;2.30;0.40;;;12.70;1.00;;;;;;5029027;28;20575;-53
2022/09/16 05:11:33;;;;;;;2.73;0.47;;;12.70;1.00;;;;;;5031361;28;20294;-52
2022/09/16 05:14:02;;;;;;;3.50;0.37;;;12.70;1.00;;;;;;5031796;28;20210;-53
2022/09/16 05:16:29;;;;;;;1.63;0.30;;;12.90;1.00;;;;;;5030449;28;20203;-53
2022/09/16 05:18:57;;;;;;;2.20;0.50;;;12.80;1.00;;;;;;5030637;28;20201;-52
2022/09/16 05:21:26;;;;;;;1.33;0.50;;;12.60;1.00;;;;;;5029726;28;20323;-53
2022/09/16 05:23:57;;;;;;;1.13;0.70;;;12.40;99.90;;;;;;5032110;28;20281;-53
2022/09/16 05:26:26;;;;;;;1.53;0.60;;;12.40;99.90;;;;;;5031242;28;20285;-53
2022/09/16 05:28:53;;;;;;;2.80;0.53;;;12.30;99.90;;;;;;5030457;28;20214;-53
2022/09/16 05:31:21;;;;;;;1.83;0.40;;;12.30;99.90;;;;;;5031943;28;20208;-53
2022/09/16 05:33:58;;;;;;;1.73;0.30;;;12.40;99.90;;;;;;5024656;28;20201;-52
2022/09/16 05:36:27;;;;;;;2.20;0.30;;;12.30;99.90;;;;;;5026702;28;20596;-53
2022/09/16 05:38:54;;;;;;;1.10;0.43;;;12.30;99.90;;;;;;5027222;28;20199;-53
2022/09/16 05:41:41;;;;;;;1.17;0.40;;;12.40;99.90;;;;;;5025562;28;20278;-53
2022/09/16 05:44:08;;;;;;;1.00;0.40;;;12.40;99.90;;;;;;5023848;28;20567;-52
2022/09/16 05:46:35;;;;;;;2.13;0.40;;;12.50;99.90;;;;;;5037280;28;20211;-52
2022/09/16 05:49:03;;;;;;;1.27;0.57;;;12.50;99.90;;;;;;5028046;28;20217;-52
2022/09/16 05:51:30;;;;;;;3.30;0.57;;;12.50;99.90;;;;;;5024857;28;20207;-52
2022/09/16 05:53:58;;;;;;;1.10;0.50;;;12.60;99.90;;;;;;5020945;28;20204;-52
2022/09/16 05:56:27;;;;;;;2.73;0.60;;;12.70;99.90;;;;;;4672005;28;10001145;-52
2022/09/16 05:58:57;;;;;;;1.00;0.50;;;12.60;99.90;;;;;;5005262;28;20225;-54
2022/09/16 06:01:27;;;;;;;5.77;1.23;;;12.70;99.90;;;;;;5017160;28;20328;-53
2022/09/16 06:03:54;;;;;;;2.87;0.50;;;12.40;99.90;;;;;;5022333;28;20235;-54
2022/09/16 06:06:34;;;;;;;1.93;0.40;;;12.50;99.90;;;;;;5019786;28;20203;-54
2022/09/16 06:09:19;;;;;;;2.23;0.90;;;12.50;99.90;;;;;;5022853;28;20211;-53
2022/09/16 06:11:49;;;;;;;5.83;0.70;;;12.50;99.90;;;;;;5012968;28;20212;-53
2022/09/16 06:14:17;;;;;;;3.50;0.70;;;12.50;99.90;;;;;;5015361;28;20204;-54
2022/09/16 06:16:45;;;;;;;3.70;0.67;;;12.50;99.90;;;;;;5018781;28;20207;-53
2022/09/16 06:19:16;;;;;;;3.17;0.50;;;12.40;99.90;;;;;;5021640;28;20207;-53
2022/09/16 06:21:44;;;;;;;5.73;1.07;;;12.60;99.90;;;;;;5019868;28;20786;-54
2022/09/16 06:24:13;;;;;;;3.47;0.90;;;12.60;99.90;;;;;;5022436;28;20209;-54
2022/09/16 06:26:42;;;;;;;2.13;0.80;;;12.70;99.90;;;;;;5024470;28;20294;-53
2022/09/16 06:29:10;;;;;;;5.40;2.30;;;12.70;99.90;;;;;;5020226;28;20195;-54
2022/09/16 06:31:37;;;;;;;3.57;0.70;;;12.70;99.90;;;;;;5022638;28;20298;-53
2022/09/16 06:34:05;;;;;;;2.40;0.90;;;12.70;99.90;;;;;;5019977;28;20295;-52
2022/09/16 06:36:38;;;;;;;3.90;1.17;;;12.70;99.90;;;;;;5022821;28;20201;-53
2022/09/16 06:39:14;;;;;;;3.53;0.80;;;12.70;99.90;;;;;;5019649;28;20823;-53
2022/09/16 06:41:41;;;;;;;1.77;0.60;;;12.60;99.90;;;;;;5023720;28;20247;-53
2022/09/16 06:44:08;;;;;;;2.93;0.90;;;12.70;99.90;;;;;;5025071;28;20235;-53
2022/09/16 06:46:36;;;;;;;5.33;0.87;;;12.60;99.90;;;;;;5030702;28;20242;-53
2022/09/16 06:49:03;;;;;;;1.43;0.60;;;12.60;99.90;;;;;;5027669;28;20200;-53
2022/09/16 06:51:33;;;;;;;1.37;0.70;;;12.60;99.90;;;;;;5021269;28;20206;-53
2022/09/16 06:54:05;;;;;;;2.77;0.70;;;12.50;99.90;;;;;;5027824;28;20705;-54
2022/09/16 06:56:34;;;;;;;3.53;0.80;;;12.50;99.90;;;;;;5028684;28;20305;-52
2022/09/16 06:59:02;;;;;;;3.30;1.00;;;12.60;99.90;;;;;;5026422;28;20634;-53
2022/09/16 07:01:30;;;;;;;4.17;0.77;;;12.60;99.90;;;;;;5019255;28;20290;-53
2022/09/16 07:04:00;;;;;;;2.13;0.93;;;12.60;99.90;;;;;;5023134;28;20866;-55
2022/09/16 07:06:32;;;;;;;4.13;0.70;;;12.70;99.90;;;;;;5019612;28;20221;-54
2022/09/16 07:09:19;;;;;;;4.00;1.00;;;12.90;99.90;;;;;;5017423;28;20203;-53
2022/09/16 07:11:46;;;;;;;3.33;0.80;;;12.80;99.90;;;;;;5019038;28;20230;-54
2022/09/16 07:14:13;;;;;;;2.10;1.00;;;12.90;99.90;;;;;;5018816;28;20225;-53
2022/09/16 07:16:39;;;;;;;2.27;0.87;;;13.10;99.90;;;;;;5023835;28;20205;-53
2022/09/16 07:19:07;;;;;;;1.53;1.00;;;13.20;99.90;;;;;;5023142;28;20203;-52
2022/09/16 07:21:34;;;;;;;4.07;0.90;;;13.30;99.90;;;;;;5019690;28;20234;-53
2022/09/16 07:24:02;;;;;;;4.23;0.93;;;13.20;99.90;;;;;;5022826;28;20196;-61
2022/09/16 07:26:31;;;;;;;2.80;1.03;;;13.30;99.90;;;;;;5021599;28;20204;-61
2022/09/16 07:29:00;;;;;;;5.97;0.90;;;13.30;99.90;;;;;;5034997;28;20193;-60
2022/09/16 07:31:33;;;;;;;5.43;0.97;;;13.40;99.90;;;;;;5020035;28;20698;-60
2022/09/16 07:34:02;;;;;;;3.77;0.70;;;13.30;99.90;;;;;;5024021;28;20245;-60
2022/09/16 07:36:39;;;;;;;4.33;0.90;;;13.30;99.90;;;;;;5020647;28;20208;-61
2022/09/16 07:39:06;;;;;;;3.40;0.83;;;13.30;99.90;;;;;;5022048;28;20231;-60
2022/09/16 07:41:39;;;;;;;6.13;1.37;;;13.30;99.90;;;;;;5017671;28;20358;-62
2022/09/16 07:44:07;;;;;;;2.33;0.53;;;13.30;99.90;;;;;;5020347;28;20206;-60
2022/09/16 07:46:35;;;;;;;4.07;0.97;;;13.20;99.90;;;;;;5004180;28;20195;-61
2022/09/16 07:49:05;;;;;;;4.87;1.20;;;13.10;99.90;;;;;;5019402;28;20225;-61
2022/09/16 07:51:33;;;;;;;3.03;1.03;;;13.40;99.90;;;;;;5020855;28;20300;-62
2022/09/16 07:54:03;;;;;;;3.57;0.87;;;13.60;99.90;;;;;;5019177;28;20200;-62
2022/09/16 07:56:33;;;;;;;3.03;0.80;;;13.70;99.90;;;;;;5016612;28;20808;-61
2022/09/16 07:59:01;;;;;;;5.73;1.27;;;13.90;99.90;;;;;;5018949;28;20289;-53
2022/09/16 08:01:30;;;;;;;7.97;1.33;;;14.10;99.90;;;;;;5025186;28;20585;-53
2022/09/16 08:03:58;;;;;;;3.10;0.60;;;14.00;99.90;;;;;;5022745;28;20271;-52
2022/09/16 08:06:27;;;;;;;2.70;0.70;;;14.20;99.90;;;;;;5024446;28;20199;-53
2022/09/16 08:08:56;;;;;;;5.37;0.77;;;14.40;99.90;;;;;;5026332;28;20688;-53
2022/09/16 08:11:41;;;;;;;5.70;1.00;;;14.60;99.90;;;;;;5023834;28;20205;-53
2022/09/16 08:14:07;;;;;;;2.67;0.80;;;14.50;99.90;;;;;;5026974;28;20202;-53
2022/09/16 08:16:34;;;;;;;3.10;0.80;;;14.60;99.90;;;;;;5030912;28;20207;-52
2022/09/16 08:19:01;;;;;;;2.60;0.73;;;15.00;99.90;;;;;;5027136;28;20200;-53
2022/09/16 08:21:28;;;;;;;8.97;1.60;;;14.90;99.90;;;;;;5024987;28;20219;-53
2022/09/16 08:23:56;;;;;;;4.67;0.77;;;14.90;99.90;;;;;;5025525;28;20289;-53
2022/09/16 08:26:23;;;;;;;4.20;0.77;;;14.90;99.90;;;;;;5031673;28;20288;-53
2022/09/16 08:28:50;;;;;;;4.87;0.97;;;15.20;99.90;;;;;;5023260;28;20231;-53
2022/09/16 08:31:34;;;;;;;2.50;0.73;;;15.20;70.70;;;;;;5028319;28;20291;-53
2022/09/16 08:34:01;;;;;;;4.13;0.93;;;15.70;1.00;;;;;;5029170;28;20214;-53
2022/09/16 08:36:28;;;;;;;5.40;0.80;;;15.50;1.00;;;;;;5023801;28;20207;-53
2022/09/16 08:38:55;;;;;;;10.03;2.37;;;15.40;1.00;;;;;;5029369;28;20201;-53
2022/09/16 08:41:47;;;;;;;2.40;0.63;;;15.40;1.00;;;;;;5025059;28;20235;-53
2022/09/16 08:44:49;;;;;;;1.40;0.50;;;15.10;1.00;;;;;;5019117;28;20225;-53
2022/09/16 08:47:49;;;;;;;5.17;0.73;;;15.20;1.00;;;;;;5028139;28;20200;-53
2022/09/16 08:50:27;;;;;;;1.07;0.93;;;15.30;99.90;;;;;;5020695;28;20202;-52
2022/09/16 08:52:58;;;;;;;5.83;0.83;;;15.40;1.00;;;;;;5025542;28;20318;-51
2022/09/16 08:55:33;;;;;;;4.93;0.97;;;15.90;1.00;;;;;;5025165;28;20197;-53
2022/09/16 08:58:25;;;;;;;2.20;0.60;;;16.00;99.30;;;;;;5027881;28;20580;-53
2022/09/16 09:00:57;;;;;;;2.80;0.50;;;16.10;1.00;;;;;;5024646;28;20308;-54
2022/09/16 09:03:37;;;;;;;6.67;0.70;;;16.00;1.00;;;;;;5029933;28;20203;-53
2022/09/16 09:06:39;;;;;;;3.80;1.17;;;16.30;1.00;;;;;;5023114;28;20596;-53
2022/09/16 09:09:35;;;;;;;1.43;0.63;;;16.50;99.90;;;;;;5022524;28;20238;-53
2022/09/16 09:12:07;;;;;;;2.00;0.50;;;16.60;1.00;;;;;;5025494;28;20229;-52
2022/09/16 09:14:50;;;;;;;2.97;0.53;;;16.60;99.90;;;;;;5021086;28;20200;-53
2022/09/16 09:17:32;;;;;;;1.83;0.73;;;16.60;99.90;;;;;;5012712;28;20305;-53
2022/09/16 09:20:42;;;;;;;0.70;0.07;;;16.50;99.90;;;;;;5021895;28;20648;-56
2022/09/16 09:23:23;;;;;;;0.97;0.10;;;15.30;1.00;;;;;;5023357;28;20689;-53
2022/09/16 09:26:38;;;;;;;0.73;0.30;;;14.30;1.00;;;;;;5026438;28;20204;-54
2022/09/16 09:29:23;;;;;;;1.60;0.30;;;14.00;1.00;;;;;;5025788;28;20197;-53
2022/09/16 09:32:14;;;;;;;0.87;0.30;;;14.00;1.00;;;;;;5020467;28;20203;-52
2022/09/16 09:35:03;;;;;;;0.93;0.30;;;13.90;1.00;;;;;;5024189;28;20201;-53
2022/09/16 09:37:55;;;;;;;2.97;0.53;;;13.70;1.00;;;;;;5026445;28;20260;-53
2022/09/16 09:40:38;;;;;;;1.57;0.50;;;13.50;99.90;;;;;;5025307;28;20198;-53
2022/09/16 09:43:29;;;;;;;2.67;0.50;;;13.40;1.00;;;;;;5023021;28;20230;-53
2022/09/16 09:46:22;;;;;;;6.13;0.80;;;13.50;81.40;;;;;;5023282;28;20202;-52
2022/09/16 09:49:08;;;;;;;3.17;0.80;;;13.60;1.00;;;;;;5022423;28;20214;-53
2022/09/16 09:51:44;;;;;;;3.57;0.70;;;13.70;1.00;;;;;;5031513;28;20296;-53
2022/09/16 09:54:30;;;;;;;1.57;0.40;;;13.70;99.90;;;;;;5031327;28;20536;-53
2022/09/16 09:57:09;;;;;;;3.10;0.57;;;13.60;1.00;;;;;;5032513;28;20208;-52
2022/09/16 10:00:00;;;;;;;1.17;0.43;;;13.70;99.90;;;;;;5031756;28;20676;-53
2022/09/16 10:02:27;;;;;;;1.97;0.50;;;13.60;99.90;;;;;;5027548;28;20242;-53
2022/09/16 10:04:55;;;;;;;2.40;0.40;;;13.70;1.00;;;;;;5030815;28;20279;-54
2022/09/16 10:07:24;;;;;;;2.23;0.63;;;13.70;1.00;;;;;;5027840;28;20240;-55
2022/09/16 10:10:16;;;;;;;1.97;0.40;;;13.80;99.90;;;;;;5030964;28;20208;-53
2022/09/16 10:12:43;;;;;;;1.30;0.30;;;13.90;32.60;;;;;;5029020;28;20214;-53
2022/09/16 10:15:26;;;;;;;2.20;0.50;;;13.90;1.00;;;;;;5026927;28;20204;-54
2022/09/16 10:17:55;;;;;;;0.93;0.40;;;14.10;1.00;;;;;;5020695;28;20568;-52
2022/09/16 10:20:41;;;;;;;1.37;0.50;;;14.30;1.00;;;;;;5030501;28;20210;-53
2022/09/16 10:23:20;;;;;;;1.07;0.30;;;14.50;1.00;;;;;;5023467;28;20901;-53
2022/09/16 10:26:08;;;;;;;4.20;0.50;;;14.60;99.90;;;;;;5030982;28;20648;-52
2022/09/16 10:28:35;;;;;;;2.73;0.53;;;14.60;99.90;;;;;;5027926;28;20211;-52
2022/09/16 10:31:05;;;;;;;4.33;0.70;;;14.70;1.00;;;;;;5030910;28;20240;-54
2022/09/16 10:33:41;;;;;;;1.73;0.70;;;14.90;99.90;;;;;;5030025;28;20280;-52
2022/09/16 10:36:10;;;;;;;3.73;0.60;;;15.00;1.00;;;;;;5032834;28;20212;-52
2022/09/16 10:39:02;;;;;;;3.40;0.93;;;15.30;99.90;;;;;;5030345;28;20200;-52
2022/09/16 10:41:46;;;;;;;3.93;0.80;;;15.30;1.00;;;;;;5025927;28;20219;-53
2022/09/16 10:44:20;;;;;;;4.03;0.60;;;15.30;1.00;;;;;;5023514;28;20679;-53
2022/09/16 10:46:59;;;;;;;2.47;0.77;;;15.30;99.90;;;;;;5030853;28;20237;-53
2022/09/16 10:50:01;;;;;;;2.63;0.63;;;15.40;1.00;;;;;;5031055;28;20652;-53
2022/09/16 10:52:30;;;;;;;2.73;0.90;;;15.40;1.00;;;;;;5030748;28;20296;-53
2022/09/16 10:55:19;;;;;;;2.97;0.60;;;15.40;1.00;;;;;;5030073;28;20662;-53
2022/09/16 10:57:47;;;;;;;3.73;0.70;;;15.40;1.00;;;;;;5029583;28;20244;-51
2022/09/16 11:00:22;;;;;;;4.27;0.70;;;15.40;1.00;;;;;;5030874;28;20671;-54
2022/09/16 11:03:19;;;;;;;1.90;0.60;;;15.40;95.90;;;;;;5032693;28;20223;-53
2022/09/16 11:05:55;;;;;;;5.23;0.70;;;15.50;1.00;;;;;;5018572;28;20212;-53
2022/09/16 11:08:51;;;;;;;1.87;0.53;;;15.50;99.90;;;;;;5028815;28;20196;-53
2022/09/16 11:11:24;;;;;;;3.70;0.80;;;15.40;99.90;;;;;;5008195;28;20210;-53
2022/09/16 11:14:21;;;;;;;0.70;0.40;;;15.70;99.90;;;;;;5020171;28;20214;-52
2022/09/16 11:16:59;;;;;;;3.50;0.60;;;15.90;99.90;;;;;;5029247;28;20294;-53
2022/09/16 11:19:45;;;;;;;1.87;0.43;;;16.10;99.90;;;;;;5029723;28;20190;-53
2022/09/16 11:22:15;;;;;;;4.80;0.60;;;16.40;99.90;;;;;;5026576;28;20665;-53
2022/09/16 11:25:15;;;;;;;2.03;0.43;;;16.60;1.00;;;;;;5023841;28;20225;-53
2022/09/16 11:27:54;;;;;;;2.73;0.70;;;16.90;99.90;;;;;;5028660;28;20201;-54
2022/09/16 11:30:21;;;;;;;2.63;0.70;;;16.80;1.00;;;;;;5021862;28;20197;-53
2022/09/16 11:33:21;;;;;;;2.87;0.73;;;16.30;1.00;;;;;;5029017;28;20757;-53
2022/09/16 11:36:25;;;;;;;0.63;0.30;;;16.10;1.00;;;;;;5026705;28;20288;-53
2022/09/16 11:39:15;;;;;;;0.93;0.23;;;14.40;1.00;;;;;;5033577;28;20253;-53
2022/09/16 11:41:48;;;;;;;0.50;0.20;;;13.70;1.00;;;;;;5033539;28;20365;-52
2022/09/16 11:44:40;;;;;;;1.10;0.20;;;13.40;1.00;;;;;;5032396;28;20197;-53
2022/09/16 11:47:37;;;;;;;2.13;0.33;;;12.80;1.00;;;;;;5035733;28;20704;-53
2022/09/16 11:50:28;;;;;;;1.03;0.20;;;13.00;99.90;;;;;;5034318;28;20734;-53
2022/09/16 11:53:38;;;;;;;2.07;0.30;;;13.40;1.00;;;;;;5028228;28;20208;-53
2022/09/16 11:56:24;;;;;;;1.43;0.47;;;13.50;99.90;;;;;;5031010;28;20210;-53
2022/09/16 11:59:00;;;;;;;0.93;0.30;;;14.10;1.00;;;;;;5040106;28;20292;-53
2022/09/16 12:01:31;;;;;;;1.10;0.17;;;14.60;1.00;;;;;;5033604;28;20227;-54
2022/09/16 12:04:11;;;;;;;0.67;0.40;;;15.00;1.00;;;;;;5025624;28;20241;-53
2022/09/16 12:07:13;;;;;;;2.17;0.30;;;15.70;1.00;;;;;;5016901;28;20231;-53
2022/09/16 12:10:19;;;;;;;2.63;0.30;;;16.00;1.00;;;;;;5041364;28;20941;-53
2022/09/16 12:12:52;;;;;;;1.20;0.47;;;16.00;99.90;;;;;;4991525;28;20254;-53
2022/09/16 12:15:27;;;;;;;1.13;0.40;;;15.90;1.00;;;;;;5028215;28;20199;-53
2022/09/16 12:18:00;;;;;;;4.53;0.70;;;15.70;28.50;;;;;;5023124;28;20571;-51
2022/09/16 12:20:28;;;;;;;1.70;0.43;;;15.50;1.00;;;;;;5024530;28;20190;-53
2022/09/16 12:23:24;;;;;;;1.73;0.60;;;15.30;99.90;;;;;;5023863;28;20740;-52
2022/09/16 12:26:11;;;;;;;1.93;0.50;;;15.50;1.00;;;;;;5015622;28;20586;-52
2022/09/16 12:28:53;;;;;;;2.27;0.57;;;15.20;1.00;;;;;;5019766;28;20241;-50
2022/09/16 12:31:33;;;;;;;1.73;0.60;;;15.20;1.00;;;;;;5018650;28;20204;-52
2022/09/16 12:34:25;;;;;;;1.53;0.70;;;15.10;99.90;;;;;;5018823;28;20211;-52
2022/09/16 12:37:13;;;;;;;3.00;0.53;;;15.00;99.90;;;;;;5019546;28;20206;-52
2022/09/16 12:39:41;;;;;;;4.30;1.03;;;14.60;1.00;;;;;;5020265;28;20230;-53
2022/09/16 12:42:36;;;;;;;1.83;0.50;;;14.70;1.00;;;;;;5017154;28;20243;-52
2022/09/16 12:45:14;;;;;;;2.30;0.67;;;14.40;1.00;;;;;;5012814;28;20208;-52
2022/09/16 12:48:19;;;;;;;2.23;0.90;;;14.50;1.00;;;;;;5021213;28;20211;-53
2022/09/16 12:50:52;;;;;;;1.77;0.50;;;14.40;1.00;;;;;;4967587;28;20705;-53
2022/09/16 12:53:40;;;;;;;4.03;0.77;;;13.80;26.70;;;;;;5021481;28;20331;-52
2022/09/16 12:56:15;;;;;;;1.60;0.30;;;13.80;1.00;;;;;;5023754;28;20289;-53
2022/09/16 12:59:15;;;;;;;4.00;1.40;;;14.20;99.90;;;;;;5022553;28;20204;-52
2022/09/16 13:01:54;;;;;;;6.57;0.97;;;13.90;1.00;;;;;;4998134;28;20238;-54
2022/09/16 13:04:37;;;;;;;1.33;0.30;;;14.10;1.00;;;;;;5018962;28;20282;-53
2022/09/16 13:07:05;;;;;;;1.53;0.30;;;13.80;1.00;;;;;;5022756;28;21825;-53
2022/09/16 13:09:37;;;;;;;4.00;0.47;;;13.60;79.70;;;;;;5023228;28;20210;-54
2022/09/16 13:12:16;;;;;;;0.57;0.30;;;13.40;1.00;;;;;;5020238;28;20200;-52
2022/09/16 13:15:05;;;;;;;0.47;0.27;;;13.40;1.00;;;;;;5023439;28;20268;-53
2022/09/16 13:17:39;;;;;;;0.80;0.30;;;13.60;26.30;;;;;;5020416;28;20225;-53
2022/09/16 13:20:38;;;;;;;3.00;0.40;;;13.60;1.00;;;;;;5017408;28;20440;-53
2022/09/16 13:23:13;;;;;;;2.20;0.57;;;14.00;1.00;;;;;;5016560;28;20229;-53
2022/09/16 13:26:02;;;;;;;2.00;0.50;;;14.20;1.00;;;;;;5017548;28;20208;-53
2022/09/16 13:28:32;;;;;;;1.57;0.40;;;14.00;1.00;;;;;;5016822;28;20204;-53
2022/09/16 13:31:11;;;;;;;1.50;0.20;;;14.00;99.90;;;;;;5025981;28;20757;-53
2022/09/16 13:33:40;;;;;;;1.87;0.40;;;13.90;1.00;;;;;;5020226;28;20204;-52